Time;durP1;ratioP1;P1;durP2;ratioP2;P2;SDS_P1;SDS_P2;PMS_P1;PMS_P2;Temp;Humidity;BMP_temperature;BMP_pressure;BME280_temperature;BME280_humidity;BME280_pressure;Samples;Min_cycle;Max_cycle;Signal;HPM_P1;HPM_P2
2021/09/16 00:00:37;;;;;;;22.42;11.52;;;;;;;20.48;100.00;96135.78;5009920;28;20209;-73
2021/09/16 00:03:03;;;;;;;22.27;12.48;;;;;;;20.41;100.00;96148.50;5009801;28;20670;-72
2021/09/16 00:05:30;;;;;;;20.77;11.38;;;;;;;20.47;100.00;96150.22;5010063;28;20218;-73
2021/09/16 00:07:56;;;;;;;18.55;11.82;;;;;;;20.38;100.00;96155.16;5009768;28;20206;-73
2021/09/16 00:10:23;;;;;;;22.05;11.75;;;;;;;20.37;100.00;96152.72;5009960;28;20213;-72
2021/09/16 00:12:49;;;;;;;21.23;11.73;;;;;;;20.30;100.00;96149.34;5009494;28;20724;-72
2021/09/16 00:15:17;;;;;;;18.85;11.68;;;;;;;20.50;100.00;96144.38;5009863;28;20213;-73
2021/09/16 00:17:43;;;;;;;22.42;12.20;;;;;;;20.27;100.00;96147.97;5011125;28;20210;-72
2021/09/16 00:20:11;;;;;;;23.15;12.80;;;;;;;20.30;100.00;96144.00;5014124;28;20210;-71
2021/09/16 00:22:37;;;;;;;19.98;12.45;;;;;;;20.27;100.00;96144.47;5009334;28;20726;-71
2021/09/16 00:25:06;;;;;;;22.05;12.88;;;;;;;20.41;100.00;96143.16;5009451;28;20202;-71
2021/09/16 00:27:32;;;;;;;23.30;12.15;;;;;;;20.24;100.00;96132.38;5009598;28;20581;-71
2021/09/16 00:29:59;;;;;;;20.40;12.30;;;;;;;20.42;100.00;96134.06;5008742;28;20573;-72
2021/09/16 00:32:27;;;;;;;26.30;13.25;;;;;;;20.53;100.00;96136.69;5009520;28;20229;-71
2021/09/16 00:37:22;;;;;;;22.90;12.88;;;;;;;20.36;100.00;96135.03;4988949;28;20215;-71
2021/09/16 00:39:49;;;;;;;22.17;12.98;;;;;;;20.48;100.00;96130.41;4990083;28;20730;-71
2021/09/16 00:42:16;;;;;;;20.60;13.18;;;;;;;20.47;100.00;96134.16;4989788;28;20707;-71
2021/09/16 00:44:43;;;;;;;26.52;13.85;;;;;;;20.41;100.00;96135.13;4989504;28;20609;-71
2021/09/16 00:47:11;;;;;;;24.77;12.90;;;;;;;20.46;100.00;96133.34;4989868;28;20671;-71
2021/09/16 00:49:39;;;;;;;28.80;14.18;;;;;;;20.56;100.00;96135.41;4990514;28;20206;-71
2021/09/16 00:52:07;;;;;;;24.70;13.60;;;;;;;20.59;100.00;96127.69;4989968;28;20216;-71
2021/09/16 00:54:35;;;;;;;25.77;13.48;;;;;;;20.65;99.69;96133.97;4990044;28;20281;-71
2021/09/16 00:57:03;;;;;;;23.17;13.32;;;;;;;20.68;100.00;96139.63;4990084;28;20203;-71
2021/09/16 00:59:31;;;;;;;21.73;13.73;;;;;;;20.54;99.90;96140.97;4990205;28;20207;-71
2021/09/16 01:01:57;;;;;;;20.63;13.35;;;;;;;20.45;100.00;96126.34;4989989;28;20226;-71
2021/09/16 01:04:24;;;;;;;22.23;13.43;;;;;;;20.54;99.24;96129.47;4989924;28;20222;-71
2021/09/16 01:06:52;;;;;;;22.33;12.98;;;;;;;20.72;99.37;96134.59;4989673;28;20200;-71
2021/09/16 01:09:19;;;;;;;28.02;14.18;;;;;;;20.54;99.84;96142.84;4990218;28;20207;-71
2021/09/16 01:11:45;;;;;;;23.70;13.88;;;;;;;20.53;100.00;96141.22;4989884;28;20203;-71
2021/09/16 01:14:12;;;;;;;23.00;13.07;;;;;;;20.43;100.00;96139.19;4989403;28;20222;-71
2021/09/16 01:16:38;;;;;;;23.08;14.07;;;;;;;20.53;99.90;96135.88;4989671;28;20667;-71
2021/09/16 01:19:05;;;;;;;21.40;12.40;;;;;;;20.41;100.00;96137.78;4989932;28;20663;-71
2021/09/16 01:21:32;;;;;;;21.67;12.30;;;;;;;20.33;100.00;96138.19;4989716;28;20468;-71
2021/09/16 01:23:59;;;;;;;25.70;12.40;;;;;;;20.51;99.70;96136.09;4989193;28;20223;-71
2021/09/16 01:26:26;;;;;;;25.92;14.55;;;;;;;20.17;100.00;96125.56;4989653;28;20203;-70
2021/09/16 01:28:52;;;;;;;26.15;13.82;;;;;;;20.35;100.00;96123.50;4989903;28;20614;-71
2021/09/16 01:31:34;;;;;;;21.27;13.48;;;;;;;20.73;99.33;96129.03;4989706;28;20195;-71
2021/09/16 01:34:02;;;;;;;24.70;14.57;;;;;;;20.63;100.00;96128.00;4989419;28;20215;-71
2021/09/16 01:36:29;;;;;;;27.15;14.32;;;;;;;20.44;100.00;96123.91;4989595;28;20215;-71
2021/09/16 01:38:55;;;;;;;24.20;14.00;;;;;;;20.51;99.58;96125.41;4989425;28;20206;-71
2021/09/16 01:41:23;;;;;;;24.30;14.35;;;;;;;20.67;99.83;96129.16;4991631;28;20227;-71
2021/09/16 01:43:50;;;;;;;24.70;13.20;;;;;;;20.49;99.40;96126.69;4993280;28;20214;-71
2021/09/16 01:46:16;;;;;;;24.40;13.60;;;;;;;20.31;100.00;96126.88;4993266;28;20203;-71
2021/09/16 01:48:43;;;;;;;25.98;13.63;;;;;;;20.29;100.00;96126.34;4993187;28;20204;-71
2021/09/16 01:51:09;;;;;;;23.33;13.45;;;;;;;20.33;100.00;96122.13;4993496;28;20210;-70
2021/09/16 01:53:36;;;;;;;21.90;13.60;;;;;;;20.34;100.00;96118.38;4992990;28;20227;-71
2021/09/16 01:56:02;;;;;;;28.17;15.60;;;;;;;20.36;100.00;96125.13;4993017;28;20211;-71
2021/09/16 01:58:30;;;;;;;30.58;15.27;;;;;;;20.52;100.00;96120.84;4993378;28;20207;-71
2021/09/16 02:00:57;;;;;;;30.13;14.70;;;;;;;20.39;99.93;96116.63;4993119;28;20412;-71
2021/09/16 02:03:23;;;;;;;25.70;14.35;;;;;;;20.40;100.00;96112.06;4991983;28;20235;-70
2021/09/16 02:05:50;;;;;;;27.52;15.50;;;;;;;20.45;100.00;96110.28;4992677;28;20689;-71
2021/09/16 02:08:17;;;;;;;27.33;15.20;;;;;;;20.43;100.00;96116.94;4992822;28;20695;-71
2021/09/16 02:10:43;;;;;;;30.30;16.23;;;;;;;20.46;100.00;96103.09;4993022;28;20210;-71
2021/09/16 02:13:10;;;;;;;29.15;15.40;;;;;;;20.43;100.00;96111.59;4992309;28;20222;-71
2021/09/16 02:15:37;;;;;;;25.55;15.25;;;;;;;20.53;100.00;96111.75;4993147;28;20242;-71
2021/09/16 02:18:04;;;;;;;24.40;14.82;;;;;;;20.31;100.00;96114.34;4992673;28;20581;-71
2021/09/16 02:20:30;;;;;;;28.85;15.57;;;;;;;20.37;100.00;96101.84;4992867;28;20203;-71
2021/09/16 02:22:57;;;;;;;30.95;15.13;;;;;;;20.33;100.00;96106.06;4992125;28;20633;-71
2021/09/16 02:25:24;;;;;;;27.35;15.00;;;;;;;20.26;100.00;96106.22;4992448;28;20211;-71
2021/09/16 02:27:50;;;;;;;29.35;15.73;;;;;;;20.31;100.00;96109.00;4992734;28;20207;-71
2021/09/16 02:30:17;;;;;;;27.70;15.18;;;;;;;20.27;100.00;96107.00;4992506;28;20219;-71
2021/09/16 02:32:45;;;;;;;27.63;15.15;;;;;;;20.47;100.00;96107.41;4992448;28;20199;-71
2021/09/16 02:35:12;;;;;;;29.35;15.90;;;;;;;20.29;100.00;96102.25;4992688;28;20211;-71
2021/09/16 02:37:39;;;;;;;25.02;15.35;;;;;;;20.41;100.00;96108.34;4992567;28;20242;-70
2021/09/16 02:40:07;;;;;;;28.85;14.98;;;;;;;20.29;100.00;96108.41;4992070;28;20203;-71
2021/09/16 02:42:34;;;;;;;24.63;15.32;;;;;;;20.21;100.00;96114.16;4992634;28;20227;-71
2021/09/16 02:45:01;;;;;;;36.47;16.17;;;;;;;20.27;100.00;96104.34;4992197;28;20223;-71
2021/09/16 02:47:28;;;;;;;26.95;15.63;;;;;;;20.30;100.00;96103.84;4992297;28;20203;-71
2021/09/16 02:49:56;;;;;;;26.27;15.25;;;;;;;20.52;100.00;96110.13;4991913;28;20229;-71
2021/09/16 02:52:23;;;;;;;26.65;15.35;;;;;;;20.37;100.00;96104.53;4991370;28;20204;-71
2021/09/16 02:54:49;;;;;;;32.17;16.02;;;;;;;20.28;100.00;96108.66;4992091;28;20230;-71
2021/09/16 02:57:16;;;;;;;33.50;16.20;;;;;;;20.25;100.00;96103.75;4992243;28;20695;-71
2021/09/16 02:59:42;;;;;;;27.70;16.20;;;;;;;20.18;100.00;96097.75;4991867;28;20207;-71
2021/09/16 03:02:09;;;;;;;27.73;15.50;;;;;;;20.07;100.00;96093.25;4992066;28;20227;-71
2021/09/16 03:04:35;;;;;;;28.75;15.32;;;;;;;20.14;100.00;96093.94;4991726;28;20613;-71
2021/09/16 03:07:04;;;;;;;29.77;17.30;;;;;;;20.38;100.00;96098.94;4991956;28;20202;-71
2021/09/16 03:09:30;;;;;;;32.38;17.88;;;;;;;20.25;100.00;96095.72;4991652;28;20203;-71
2021/09/16 03:11:57;;;;;;;33.47;17.88;;;;;;;20.28;100.00;96095.28;4991674;28;20199;-71
2021/09/16 03:14:23;;;;;;;29.30;16.38;;;;;;;20.35;100.00;96088.72;4991418;28;20727;-70
2021/09/16 03:16:50;;;;;;;28.63;16.88;;;;;;;20.32;100.00;96097.22;4992127;28;20210;-71
2021/09/16 03:19:16;;;;;;;33.83;16.40;;;;;;;20.37;100.00;96102.66;4991455;28;20663;-71
2021/09/16 03:21:43;;;;;;;28.92;15.60;;;;;;;20.32;100.00;96093.72;4991226;28;20214;-71
2021/09/16 03:24:10;;;;;;;29.90;17.40;;;;;;;20.47;100.00;96091.34;4990672;28;20227;-71
2021/09/16 03:26:37;;;;;;;29.38;16.85;;;;;;;20.18;100.00;96087.84;4991482;28;20214;-71
2021/09/16 03:29:03;;;;;;;29.08;16.55;;;;;;;20.31;100.00;96084.91;4991302;28;20203;-70
2021/09/16 03:31:30;;;;;;;33.22;16.77;;;;;;;20.36;100.00;96084.16;4991611;28;20573;-71
2021/09/16 03:33:57;;;;;;;28.92;17.50;;;;;;;20.34;100.00;96080.91;4991231;28;20219;-71
2021/09/16 03:36:23;;;;;;;34.67;16.55;;;;;;;20.25;100.00;96085.84;4991028;28;20215;-71
2021/09/16 03:38:50;;;;;;;32.70;18.27;;;;;;;20.27;100.00;96088.28;4991288;28;20643;-71
2021/09/16 03:41:18;;;;;;;34.25;17.17;;;;;;;20.38;100.00;96082.06;4991598;28;20195;-71
2021/09/16 03:43:44;;;;;;;27.35;15.73;;;;;;;20.19;100.00;96088.69;4991013;28;20230;-71
2021/09/16 03:46:10;;;;;;;32.70;16.85;;;;;;;20.30;100.00;96083.28;4991099;28;20581;-71
2021/09/16 03:48:37;;;;;;;29.63;17.30;;;;;;;20.24;100.00;96070.84;4991279;28;20207;-71
2021/09/16 03:51:03;;;;;;;29.58;17.40;;;;;;;20.13;100.00;96073.56;4990889;28;20202;-71
2021/09/16 03:53:30;;;;;;;34.13;16.25;;;;;;;20.26;100.00;96083.97;4990402;28;20721;-71
2021/09/16 03:55:58;;;;;;;30.67;17.83;;;;;;;20.15;100.00;96079.50;4991337;28;20605;-71
2021/09/16 03:58:26;;;;;;;30.05;16.73;;;;;;;20.38;100.00;96071.38;4990900;28;20562;-71
2021/09/16 04:00:53;;;;;;;31.48;16.80;;;;;;;20.17;100.00;96069.34;4990984;28;20207;-71
2021/09/16 04:03:19;;;;;;;28.08;15.55;;;;;;;20.17;100.00;96074.72;4990521;28;20322;-71
2021/09/16 04:05:46;;;;;;;30.42;16.55;;;;;;;20.02;100.00;96070.94;4990036;28;20203;-71
2021/09/16 04:08:12;;;;;;;29.95;16.50;;;;;;;20.03;100.00;96068.03;4990534;28;20215;-71
2021/09/16 04:10:39;;;;;;;28.60;16.00;;;;;;;20.12;100.00;96081.84;4990467;28;20214;-71
2021/09/16 04:13:06;;;;;;;27.90;16.52;;;;;;;20.01;100.00;96072.81;4990320;28;20718;-71
2021/09/16 04:15:34;;;;;;;28.85;15.38;;;;;;;20.27;100.00;96072.22;4990937;28;20211;-71
2021/09/16 04:18:01;;;;;;;29.65;16.10;;;;;;;20.18;100.00;96077.13;4990392;28;20665;-71
2021/09/16 04:20:27;;;;;;;25.70;15.85;;;;;;;20.21;100.00;96074.00;4990509;28;20210;-71
2021/09/16 04:22:54;;;;;;;28.27;15.60;;;;;;;20.21;100.00;96074.00;4989778;28;20733;-71
2021/09/16 04:25:20;;;;;;;23.38;14.98;;;;;;;20.12;100.00;96071.13;4990537;28;20199;-70
2021/09/16 04:27:47;;;;;;;26.33;15.23;;;;;;;20.16;100.00;96078.44;4990142;28;20213;-71
2021/09/16 04:30:13;;;;;;;27.30;16.10;;;;;;;20.16;100.00;96075.75;4990714;28;20196;-71
2021/09/16 04:32:42;;;;;;;28.02;16.40;;;;;;;20.39;100.00;96072.97;4990156;28;20200;-71
2021/09/16 04:35:10;;;;;;;29.50;15.43;;;;;;;20.32;100.00;96080.34;4989883;28;20204;-71
2021/09/16 04:37:37;;;;;;;27.95;15.88;;;;;;;20.17;100.00;96081.94;4989949;28;20215;-71
2021/09/16 04:40:04;;;;;;;28.13;16.00;;;;;;;20.17;100.00;96074.72;4990459;28;20207;-71
2021/09/16 04:42:31;;;;;;;31.15;16.00;;;;;;;20.18;100.00;96080.91;4990189;28;20553;-71
2021/09/16 04:44:58;;;;;;;27.90;16.45;;;;;;;20.09;100.00;96082.34;4989534;28;20223;-71
2021/09/16 04:47:24;;;;;;;26.73;14.98;;;;;;;20.10;100.00;96092.78;4990090;28;20207;-71
2021/09/16 04:49:52;;;;;;;25.70;14.98;;;;;;;20.26;100.00;96098.19;4990293;28;20455;-71
2021/09/16 04:52:19;;;;;;;27.35;15.63;;;;;;;20.03;100.00;96094.78;4990109;28;20199;-71
2021/09/16 04:54:45;;;;;;;27.10;14.25;;;;;;;20.18;100.00;96100.44;4989246;28;20722;-71
2021/09/16 04:57:12;;;;;;;29.70;14.93;;;;;;;20.16;100.00;96099.03;4989736;28;20206;-71
2021/09/16 04:59:38;;;;;;;24.35;14.10;;;;;;;20.07;100.00;96103.94;4989490;28;20195;-71
2021/09/16 05:02:05;;;;;;;25.10;14.63;;;;;;;20.14;100.00;96099.28;4989636;28;20683;-71
2021/09/16 05:04:31;;;;;;;32.55;14.07;;;;;;;20.11;100.00;96102.44;4989527;28;20219;-71
2021/09/16 05:06:59;;;;;;;25.20;14.23;;;;;;;20.27;100.00;96099.00;4989858;28;20214;-71
2021/09/16 05:09:26;;;;;;;30.50;14.95;;;;;;;19.99;100.00;96101.66;4989630;28;20207;-71
2021/09/16 05:11:52;;;;;;;26.50;15.07;;;;;;;20.10;100.00;96108.84;4989878;28;20222;-71
2021/09/16 05:14:18;;;;;;;28.08;15.20;;;;;;;20.13;100.00;96111.03;4989307;28;20223;-71
2021/09/16 05:16:45;;;;;;;27.90;15.57;;;;;;;19.97;100.00;96110.97;4989345;28;20203;-71
2021/09/16 05:19:11;;;;;;;28.48;15.50;;;;;;;20.12;100.00;96117.41;4989778;28;20203;-71
2021/09/16 05:21:38;;;;;;;25.70;14.90;;;;;;;20.17;100.00;96114.84;4990034;28;20199;-71
2021/09/16 05:24:06;;;;;;;23.10;14.98;;;;;;;20.34;100.00;96107.66;4989103;28;20226;-71
2021/09/16 05:26:33;;;;;;;25.90;14.63;;;;;;;20.16;100.00;96105.19;4989877;28;20214;-71
2021/09/16 05:28:59;;;;;;;23.95;14.52;;;;;;;20.20;100.00;96109.84;4989504;28;20206;-71
2021/09/16 05:31:26;;;;;;;27.85;16.10;;;;;;;20.20;100.00;96117.06;4990037;28;20202;-71
2021/09/16 05:33:52;;;;;;;29.75;15.18;;;;;;;20.23;100.00;96116.56;4989253;28;20431;-71
2021/09/16 05:36:18;;;;;;;26.73;15.88;;;;;;;20.24;100.00;96118.22;4989507;28;20222;-71
2021/09/16 05:38:45;;;;;;;27.42;15.23;;;;;;;20.25;100.00;96117.13;4989257;28;20210;-71
2021/09/16 05:41:13;;;;;;;31.23;16.65;;;;;;;20.45;100.00;96115.66;4989183;28;20579;-71
2021/09/16 05:43:39;;;;;;;26.85;15.65;;;;;;;20.18;100.00;96114.59;4988942;28;20233;-71
2021/09/16 05:46:06;;;;;;;22.13;14.57;;;;;;;20.32;100.00;96115.16;4989867;28;20215;-71
2021/09/16 05:48:32;;;;;;;27.95;14.38;;;;;;;20.34;100.00;96126.41;4989627;28;20584;-71
2021/09/16 05:50:58;;;;;;;26.65;15.35;;;;;;;20.42;100.00;96123.38;4989578;28;20199;-71
2021/09/16 05:53:25;;;;;;;26.52;15.23;;;;;;;20.47;100.00;96126.13;4989257;28;20223;-71
2021/09/16 05:55:51;;;;;;;23.45;13.82;;;;;;;20.45;100.00;96128.22;4989678;28;20195;-71
2021/09/16 05:58:19;;;;;;;25.42;15.02;;;;;;;20.65;100.00;96120.56;4989017;28;20199;-71
2021/09/16 06:00:46;;;;;;;27.27;13.98;;;;;;;20.46;100.00;96130.66;4988903;28;20195;-71
2021/09/16 06:03:12;;;;;;;29.38;14.68;;;;;;;20.47;100.00;96123.47;4989004;28;20223;-71
2021/09/16 06:05:39;;;;;;;25.83;14.63;;;;;;;20.52;100.00;96131.56;4989661;28;20199;-72
2021/09/16 06:08:06;;;;;;;29.50;14.88;;;;;;;20.54;100.00;96134.81;4989054;28;20200;-71
2021/09/16 06:10:32;;;;;;;25.13;14.88;;;;;;;20.46;100.00;96132.53;4989529;28;20211;-71
2021/09/16 06:12:59;;;;;;;27.95;15.07;;;;;;;20.58;100.00;96125.25;4988832;28;20218;-71
2021/09/16 06:15:26;;;;;;;26.80;15.02;;;;;;;20.75;100.00;96126.09;4989265;28;20215;-72
2021/09/16 06:17:53;;;;;;;25.77;14.90;;;;;;;20.44;100.00;96124.75;4989267;28;20202;-71
2021/09/16 06:20:19;;;;;;;28.15;15.10;;;;;;;20.65;100.00;96128.59;4989125;28;20687;-72
2021/09/16 06:22:46;;;;;;;28.10;15.45;;;;;;;20.60;100.00;96128.50;4988626;28;20570;-71
2021/09/16 06:25:14;;;;;;;29.58;15.25;;;;;;;20.95;100.00;96122.72;4988813;28;20200;-71
2021/09/16 06:27:41;;;;;;;27.00;15.13;;;;;;;20.88;100.00;96116.69;4990399;28;20258;-71
2021/09/16 06:30:08;;;;;;;29.15;15.05;;;;;;;20.99;100.00;96118.50;4992389;28;20208;-72
2021/09/16 06:32:37;;;;;;;26.92;15.50;;;;;;;21.21;100.00;96115.91;4992754;28;20207;-71
2021/09/16 06:35:05;;;;;;;25.48;14.88;;;;;;;21.08;100.00;96111.69;4991793;28;20690;-72
2021/09/16 06:39:59;;;;;;;28.75;16.23;;;;;;;21.11;100.00;96124.56;4990542;28;20756;-72
2021/09/16 06:42:26;;;;;;;28.23;15.85;;;;;;;21.19;100.00;96121.47;4992493;28;20218;-72
2021/09/16 06:44:53;;;;;;;31.25;15.57;;;;;;;21.01;100.00;96120.94;4992336;28;20223;-72
2021/09/16 06:47:19;;;;;;;30.98;16.27;;;;;;;21.06;100.00;96116.44;4992263;28;20230;-72
2021/09/16 06:49:48;;;;;;;26.50;16.17;;;;;;;21.44;100.00;96116.50;4992529;28;20199;-72
2021/09/16 06:52:15;;;;;;;30.63;16.13;;;;;;;21.31;100.00;96116.84;4992129;28;20203;-72
2021/09/16 06:54:41;;;;;;;28.10;15.77;;;;;;;21.36;99.31;96124.97;4991853;28;20206;-72
2021/09/16 06:57:08;;;;;;;29.60;16.30;;;;;;;21.39;99.04;96116.44;4991648;28;20227;-72
2021/09/16 06:59:34;;;;;;;30.77;16.67;;;;;;;21.43;98.94;96118.38;4991670;28;20207;-72
2021/09/16 07:02:01;;;;;;;27.10;14.35;;;;;;;21.48;99.08;96117.63;4991680;28;20203;-72
2021/09/16 07:04:27;;;;;;;25.40;15.50;;;;;;;21.47;99.63;96122.19;4991203;28;20230;-72
2021/09/16 07:06:58;;;;;;;30.50;16.23;;;;;;;21.48;99.54;96123.78;4991250;28;20230;-72
2021/09/16 07:09:24;;;;;;;26.73;15.75;;;;;;;21.40;99.23;96110.00;4991525;28;20215;-72
2021/09/16 07:11:51;;;;;;;28.67;16.40;;;;;;;21.65;98.75;96113.91;4991630;28;20207;-71
2021/09/16 07:14:17;;;;;;;29.50;16.38;;;;;;;21.60;98.93;96113.81;4991054;28;20210;-71
2021/09/16 07:16:44;;;;;;;25.95;16.08;;;;;;;21.25;98.88;96117.03;4991406;28;20234;-72
2021/09/16 07:19:11;;;;;;;28.25;16.10;;;;;;;21.61;98.56;96112.78;4991306;28;20214;-72
2021/09/16 07:21:37;;;;;;;36.50;16.88;;;;;;;21.73;98.41;96109.97;4991130;28;20261;-72
2021/09/16 07:24:07;;;;;;;32.90;16.60;;;;;;;21.95;97.92;96113.47;4991177;28;20223;-72
2021/09/16 07:26:34;;;;;;;29.35;16.63;;;;;;;21.71;98.00;96128.97;4991334;28;20266;-72
2021/09/16 07:29:01;;;;;;;29.35;17.05;;;;;;;21.76;98.43;96125.56;4991298;28;20199;-72
2021/09/16 07:31:27;;;;;;;26.67;16.30;;;;;;;21.95;98.82;96124.19;4991436;28;20220;-72
2021/09/16 07:33:54;;;;;;;34.45;16.58;;;;;;;21.80;98.67;96132.03;4990943;28;20199;-73
2021/09/16 07:36:20;;;;;;;30.63;17.02;;;;;;;21.69;100.00;96130.28;4991001;28;20230;-72
2021/09/16 07:38:47;;;;;;;28.10;16.40;;;;;;;21.86;98.66;96131.06;4991043;28;20207;-72
2021/09/16 07:41:15;;;;;;;26.73;15.93;;;;;;;21.73;98.90;96123.38;4990974;28;20203;-72
2021/09/16 07:43:42;;;;;;;30.67;16.60;;;;;;;21.71;98.70;96130.84;4990514;28;20230;-71
2021/09/16 07:46:09;;;;;;;30.02;16.77;;;;;;;21.88;98.19;96137.81;4990752;28;20753;-71
2021/09/16 07:48:35;;;;;;;29.95;17.00;;;;;;;21.64;99.10;96135.59;4990573;28;20579;-71
2021/09/16 07:51:02;;;;;;;34.03;16.75;;;;;;;21.61;99.66;96138.75;4990683;28;20666;-71
2021/09/16 07:53:30;;;;;;;37.15;16.45;;;;;;;21.80;99.49;96142.78;4990445;28;20295;-71
2021/09/16 07:55:57;;;;;;;30.17;15.98;;;;;;;21.44;99.60;96154.84;4990693;28;20226;-71
2021/09/16 07:58:24;;;;;;;31.45;16.95;;;;;;;21.69;100.00;96146.38;4990737;28;20621;-72
2021/09/16 08:00:52;;;;;;;27.02;16.55;;;;;;;21.81;99.56;96144.41;4990750;28;20842;-72
2021/09/16 08:03:18;;;;;;;30.98;17.10;;;;;;;21.16;100.00;96154.13;4990011;28;20245;-72
2021/09/16 08:05:45;;;;;;;27.33;16.38;;;;;;;21.44;100.00;96151.34;4990740;28;20219;-72
2021/09/16 08:08:12;;;;;;;25.88;15.23;;;;;;;21.15;100.00;96154.38;4990634;28;20235;-72
2021/09/16 08:10:38;;;;;;;26.70;15.95;;;;;;;20.80;100.00;96148.44;4990352;28;20210;-72
2021/09/16 08:13:05;;;;;;;27.60;16.83;;;;;;;21.14;100.00;96147.41;4990061;28;20210;-71
2021/09/16 08:15:33;;;;;;;28.10;15.77;;;;;;;21.08;100.00;96149.19;4990054;28;20210;-71
2021/09/16 08:17:59;;;;;;;27.73;15.88;;;;;;;21.04;100.00;96157.94;4990319;28;20222;-71
2021/09/16 08:20:27;;;;;;;27.92;15.20;;;;;;;21.39;100.00;96161.19;4990319;28;20211;-72
2021/09/16 08:22:54;;;;;;;27.80;15.88;;;;;;;21.31;100.00;96161.59;4990002;28;20207;-72
2021/09/16 08:25:20;;;;;;;27.83;15.20;;;;;;;21.10;100.00;96165.03;4989915;28;20234;-72
2021/09/16 08:27:47;;;;;;;23.17;13.48;;;;;;;20.88;100.00;96166.78;4990040;28;20206;-72
2021/09/16 08:30:14;;;;;;;26.58;15.43;;;;;;;21.20;100.00;96160.63;4989950;28;20225;-72
2021/09/16 08:32:42;;;;;;;23.27;13.20;;;;;;;21.23;100.00;96165.53;4989917;28;20207;-71
2021/09/16 08:35:10;;;;;;;24.73;13.70;;;;;;;20.87;100.00;96166.00;4990105;28;20590;-72
2021/09/16 08:37:37;;;;;;;25.52;14.30;;;;;;;21.11;100.00;96159.41;4989764;28;20230;-72
2021/09/16 08:40:05;;;;;;;23.80;13.80;;;;;;;21.28;100.00;96164.78;4990030;28;20199;-72
2021/09/16 08:42:32;;;;;;;23.20;13.77;;;;;;;21.41;100.00;96159.06;4989627;28;20207;-72
2021/09/16 08:44:58;;;;;;;20.30;12.23;;;;;;;21.23;100.00;96162.84;4989375;28;20242;-72
2021/09/16 08:47:25;;;;;;;24.00;11.52;;;;;;;21.10;100.00;96152.44;4989675;28;20238;-71
2021/09/16 08:49:53;;;;;;;19.73;12.25;;;;;;;21.41;100.00;96148.34;4989070;28;20199;-71
2021/09/16 08:52:20;;;;;;;20.98;12.48;;;;;;;21.36;99.20;96154.47;4990105;28;20226;-72
2021/09/16 08:54:48;;;;;;;21.58;12.52;;;;;;;21.72;100.00;96151.25;4989472;28;20191;-72
2021/09/16 08:57:16;;;;;;;21.50;12.25;;;;;;;21.56;99.19;96152.09;4989407;28;20234;-72
2021/09/16 08:59:44;;;;;;;19.55;11.60;;;;;;;21.76;99.16;96149.72;4990136;28;20203;-72
2021/09/16 09:02:11;;;;;;;19.45;11.93;;;;;;;22.15;95.79;96158.28;4989544;28;20663;-72
2021/09/16 09:04:38;;;;;;;20.08;10.98;;;;;;;22.37;95.00;96147.56;4988962;28;20262;-72
2021/09/16 09:07:07;;;;;;;16.83;9.82;;;;;;;22.57;93.52;96158.50;4989393;28;20753;-72
2021/09/16 09:09:34;;;;;;;18.10;9.70;;;;;;;22.59;93.14;96151.81;4989415;28;20706;-72
2021/09/16 09:12:02;;;;;;;16.15;9.30;;;;;;;22.37;94.08;96151.03;4989448;28;20199;-72
2021/09/16 09:14:30;;;;;;;16.50;9.18;;;;;;;22.46;93.23;96149.53;4989263;28;20210;-72
2021/09/16 09:16:58;;;;;;;17.08;9.57;;;;;;;22.09;95.53;96153.88;4989454;28;20219;-71
2021/09/16 09:19:26;;;;;;;16.85;8.73;;;;;;;22.43;94.14;96155.41;4989704;28;20203;-72
2021/09/16 09:21:53;;;;;;;18.48;8.60;;;;;;;22.31;93.80;96153.91;4989424;28;20225;-72
2021/09/16 09:24:33;;;;;;;14.73;8.50;;;;;;;22.48;92.43;96160.84;4988953;28;20223;-72
2021/09/16 09:27:00;;;;;;;19.45;8.88;;;;;;;22.18;93.83;96155.06;4989301;28;20223;-71
2021/09/16 09:29:28;;;;;;;17.40;8.38;;;;;;;22.16;92.50;96149.16;4989333;28;20217;-72
2021/09/16 09:32:00;;;;;;;16.38;8.40;;;;;;;22.43;93.09;96144.66;4989379;28;20261;-72
2021/09/16 09:34:29;;;;;;;14.63;8.32;;;;;;;22.35;91.60;96153.19;4988940;28;20207;-72
2021/09/16 09:37:09;;;;;;;15.30;7.82;;;;;;;22.34;91.78;96151.56;4989025;28;20593;-71
2021/09/16 09:39:37;;;;;;;12.40;7.32;;;;;;;22.69;90.60;96143.84;4989112;28;20574;-71
2021/09/16 09:42:22;;;;;;;13.23;7.65;;;;;;;22.97;90.03;96146.28;4989239;28;20195;-71
2021/09/16 09:44:51;;;;;;;11.82;7.28;;;;;;;22.88;89.38;96142.44;4988955;28;20223;-72
2021/09/16 09:47:36;;;;;;;11.35;6.60;;;;;;;23.30;87.73;96138.78;4988926;28;20227;-71
2021/09/16 09:50:03;;;;;;;9.25;5.03;;;;;;;22.72;89.55;96135.28;4989359;28;20199;-71
2021/09/16 09:52:29;;;;;;;9.05;5.97;;;;;;;22.70;87.21;96126.69;4988951;28;20208;-71
2021/09/16 09:54:57;;;;;;;9.95;5.93;;;;;;;22.86;89.08;96128.44;4988845;28;20203;-71
2021/09/16 09:57:24;;;;;;;7.43;4.97;;;;;;;22.79;87.55;96131.31;4988925;28;20227;-71
2021/09/16 09:59:59;;;;;;;10.68;6.03;;;;;;;23.17;85.70;96114.22;4988973;28;20207;-72
2021/09/16 10:02:30;;;;;;;10.27;5.55;;;;;;;23.14;86.81;96122.78;4991637;28;20199;-72
2021/09/16 10:04:57;;;;;;;10.90;6.43;;;;;;;23.63;86.16;96109.69;4992587;28;20223;-72
2021/09/16 10:07:35;;;;;;;10.43;6.20;;;;;;;23.90;84.21;96114.97;4992667;28;20231;-71
2021/09/16 10:10:06;;;;;;;9.52;4.95;;;;;;;23.82;82.16;96108.19;4992612;28;20215;-72
2021/09/16 10:12:33;;;;;;;11.68;5.85;;;;;;;23.49;83.82;96100.44;4992406;28;20587;-72
2021/09/16 10:15:00;;;;;;;8.48;4.80;;;;;;;23.90;83.85;96113.06;4992640;28;20424;-72
2021/09/16 10:17:26;;;;;;;9.18;5.25;;;;;;;23.30;83.24;96110.00;4992433;28;20628;-72
2021/09/16 10:19:54;;;;;;;10.30;5.43;;;;;;;23.89;83.82;96107.97;4992580;28;20690;-72
2021/09/16 10:22:21;;;;;;;8.23;5.30;;;;;;;23.57;83.45;96105.31;4992473;28;20211;-72
2021/09/16 10:24:48;;;;;;;11.43;5.60;;;;;;;23.77;82.94;96105.47;4991929;28;20238;-72
2021/09/16 10:27:43;;;;;;;9.38;5.35;;;;;;;23.89;81.22;96103.38;4992117;28;20702;-72
2021/09/16 10:30:42;;;;;;;8.40;5.32;;;;;;;23.95;81.75;96103.16;4961696;28;20207;-72
2021/09/16 10:33:13;;;;;;;6.57;4.57;;;;;;;24.07;81.55;96105.59;4986460;28;20693;-72
2021/09/16 10:35:43;;;;;;;7.03;4.07;;;;;;;23.81;81.13;96109.25;4992136;28;20246;-72
2021/09/16 10:38:21;;;;;;;9.02;5.13;;;;;;;23.99;80.01;96106.13;4992166;28;20207;-72
2021/09/16 10:40:48;;;;;;;7.30;4.68;;;;;;;23.87;80.82;96105.53;4991761;28;20210;-72
2021/09/16 10:43:23;;;;;;;6.75;4.43;;;;;;;23.91;81.37;96112.00;4991750;28;20570;-72
2021/09/16 10:45:50;;;;;;;7.20;4.80;;;;;;;24.04;82.50;96106.97;4991752;28;20304;-72
2021/09/16 10:48:32;;;;;;;8.52;4.28;;;;;;;23.64;79.41;96115.88;4992271;28;20203;-72
2021/09/16 10:51:05;;;;;;;7.47;4.10;;;;;;;23.49;81.10;96116.59;4991585;28;20202;-71
2021/09/16 10:53:38;;;;;;;9.40;4.75;;;;;;;23.42;80.88;96113.31;4991501;28;20211;-74
2021/09/16 10:56:06;;;;;;;6.82;2.63;;;;;;;22.91;83.72;96110.50;4991689;28;20757;-72
2021/09/16 10:58:34;;;;;;;9.57;5.00;;;;;;;23.02;85.86;96119.47;4991866;28;20210;-72
2021/09/16 11:01:00;;;;;;;7.03;4.38;;;;;;;22.86;87.00;96118.50;4991836;28;20210;-72
2021/09/16 11:03:27;;;;;;;6.50;4.40;;;;;;;22.67;90.29;96121.81;4991509;28;20214;-71
2021/09/16 11:05:57;;;;;;;6.93;4.20;;;;;;;22.57;90.39;96113.66;4991540;28;20319;-72
2021/09/16 11:09:01;;;;;;;5.65;3.80;;;;;;;22.59;91.06;96110.72;4991448;28;20249;-72
2021/09/16 11:11:51;;;;;;;4.90;2.40;;;;;;;22.38;90.54;96112.38;4991321;28;20207;-72
2021/09/16 11:14:29;;;;;;;4.55;2.08;;;;;;;22.51;90.17;96116.56;4990407;28;20741;-72
2021/09/16 11:16:59;;;;;;;7.55;2.47;;;;;;;22.39;90.70;96123.94;4991144;28;20226;-73
2021/09/16 11:19:25;;;;;;;3.42;2.20;;;;;;;22.33;91.36;96127.63;4991460;28;20607;-73
2021/09/16 11:22:10;;;;;;;6.93;2.40;;;;;;;22.19;93.07;96137.91;4991408;28;20203;-74